sensor_id;sensor_type;location;lat;lon;timestamp;P1;durP1;ratioP1;P2;durP2;ratioP2
24729;SDS011;12832;52.392;13.066;2023-04-24T00:00:31;0.60;;;0.60;;
24729;SDS011;12832;52.392;13.066;2023-04-24T00:02:57;0.60;;;0.60;;
24729;SDS011;12832;52.392;13.066;2023-04-24T00:05:25;0.70;;;0.70;;
24729;SDS011;12832;52.392;13.066;2023-04-24T00:07:51;0.63;;;0.63;;
24729;SDS011;12832;52.392;13.066;2023-04-24T00:10:18;0.75;;;0.75;;
24729;SDS011;12832;52.392;13.066;2023-04-24T00:12:44;0.60;;;0.60;;
24729;SDS011;12832;52.392;13.066;2023-04-24T00:15:10;0.60;;;0.60;;
24729;SDS011;12832;52.392;13.066;2023-04-24T00:17:37;0.70;;;0.70;;
24729;SDS011;12832;52.392;13.066;2023-04-24T00:20:03;0.70;;;0.70;;
24729;SDS011;12832;52.392;13.066;2023-04-24T00:22:32;0.57;;;0.57;;
24729;SDS011;12832;52.392;13.066;2023-04-24T00:24:58;0.50;;;0.50;;
24729;SDS011;12832;52.392;13.066;2023-04-24T00:27:25;0.70;;;0.70;;
24729;SDS011;12832;52.392;13.066;2023-04-24T00:29:51;0.60;;;0.60;;
24729;SDS011;12832;52.392;13.066;2023-04-24T00:32:17;0.63;;;0.63;;
24729;SDS011;12832;52.392;13.066;2023-04-24T00:34:43;0.57;;;0.57;;
24729;SDS011;12832;52.392;13.066;2023-04-24T00:37:09;0.70;;;0.70;;
24729;SDS011;12832;52.392;13.066;2023-04-24T00:39:35;2.08;;;0.52;;
24729;SDS011;12832;52.392;13.066;2023-04-24T00:42:01;0.60;;;0.60;;
24729;SDS011;12832;52.392;13.066;2023-04-24T00:44:27;0.60;;;0.60;;
24729;SDS011;12832;52.392;13.066;2023-04-24T00:46:54;0.52;;;0.52;;
24729;SDS011;12832;52.392;13.066;2023-04-24T00:49:21;0.60;;;0.60;;
24729;SDS011;12832;52.392;13.066;2023-04-24T00:51:47;0.70;;;0.70;;
24729;SDS011;12832;52.392;13.066;2023-04-24T00:54:14;0.70;;;0.70;;
24729;SDS011;12832;52.392;13.066;2023-04-24T00:56:41;0.70;;;0.70;;
24729;SDS011;12832;52.392;13.066;2023-04-24T00:59:09;0.80;;;0.80;;
24729;SDS011;12832;52.392;13.066;2023-04-24T01:01:36;0.50;;;0.50;;
24729;SDS011;12832;52.392;13.066;2023-04-24T01:04:02;0.75;;;0.70;;
24729;SDS011;12832;52.392;13.066;2023-04-24T01:06:29;0.60;;;0.60;;
24729;SDS011;12832;52.392;13.066;2023-04-24T01:08:58;0.80;;;0.80;;
24729;SDS011;12832;52.392;13.066;2023-04-24T01:11:25;0.73;;;0.73;;
24729;SDS011;12832;52.392;13.066;2023-04-24T01:13:52;0.60;;;0.60;;
24729;SDS011;12832;52.392;13.066;2023-04-24T01:16:18;0.52;;;0.52;;
24729;SDS011;12832;52.392;13.066;2023-04-24T01:18:48;0.68;;;0.68;;
24729;SDS011;12832;52.392;13.066;2023-04-24T01:21:15;0.80;;;0.80;;
24729;SDS011;12832;52.392;13.066;2023-04-24T01:23:43;0.50;;;0.50;;
24729;SDS011;12832;52.392;13.066;2023-04-24T01:26:09;0.75;;;0.75;;
24729;SDS011;12832;52.392;13.066;2023-04-24T01:28:35;0.63;;;0.63;;
24729;SDS011;12832;52.392;13.066;2023-04-24T01:31:02;0.70;;;0.70;;
24729;SDS011;12832;52.392;13.066;2023-04-24T01:33:29;0.80;;;0.80;;
24729;SDS011;12832;52.392;13.066;2023-04-24T01:35:55;0.63;;;0.63;;
24729;SDS011;12832;52.392;13.066;2023-04-24T01:38:22;0.80;;;0.80;;
24729;SDS011;12832;52.392;13.066;2023-04-24T01:40:49;0.80;;;0.80;;
24729;SDS011;12832;52.392;13.066;2023-04-24T01:43:16;0.50;;;0.50;;
24729;SDS011;12832;52.392;13.066;2023-04-24T01:45:43;0.60;;;0.60;;
24729;SDS011;12832;52.392;13.066;2023-04-24T01:48:09;0.75;;;0.75;;
24729;SDS011;12832;52.392;13.066;2023-04-24T01:50:37;0.63;;;0.63;;
24729;SDS011;12832;52.392;13.066;2023-04-24T01:53:03;0.70;;;0.70;;
24729;SDS011;12832;52.392;13.066;2023-04-24T01:55:29;0.77;;;0.77;;
24729;SDS011;12832;52.392;13.066;2023-04-24T01:57:56;0.60;;;0.60;;
24729;SDS011;12832;52.392;13.066;2023-04-24T02:00:22;0.70;;;0.70;;
24729;SDS011;12832;52.392;13.066;2023-04-24T02:02:48;0.70;;;0.70;;
24729;SDS011;12832;52.392;13.066;2023-04-24T02:05:15;0.70;;;0.70;;
24729;SDS011;12832;52.392;13.066;2023-04-24T02:07:41;0.70;;;0.70;;
24729;SDS011;12832;52.392;13.066;2023-04-24T02:10:08;0.60;;;0.60;;
24729;SDS011;12832;52.392;13.066;2023-04-24T02:12:34;0.70;;;0.70;;
24729;SDS011;12832;52.392;13.066;2023-04-24T02:15:01;0.70;;;0.70;;
24729;SDS011;12832;52.392;13.066;2023-04-24T02:17:27;0.60;;;0.60;;
24729;SDS011;12832;52.392;13.066;2023-04-24T02:19:53;0.50;;;0.50;;
24729;SDS011;12832;52.392;13.066;2023-04-24T02:22:19;0.80;;;0.80;;
24729;SDS011;12832;52.392;13.066;2023-04-24T02:24:45;0.68;;;0.68;;
24729;SDS011;12832;52.392;13.066;2023-04-24T02:27:12;0.60;;;0.60;;
24729;SDS011;12832;52.392;13.066;2023-04-24T02:29:38;0.68;;;0.68;;
24729;SDS011;12832;52.392;13.066;2023-04-24T02:32:04;0.52;;;0.52;;
24729;SDS011;12832;52.392;13.066;2023-04-24T02:34:30;0.77;;;0.77;;
24729;SDS011;12832;52.392;13.066;2023-04-24T02:36:56;0.75;;;0.75;;
24729;SDS011;12832;52.392;13.066;2023-04-24T02:39:23;0.82;;;0.80;;
24729;SDS011;12832;52.392;13.066;2023-04-24T02:41:49;0.70;;;0.70;;
24729;SDS011;12832;52.392;13.066;2023-04-24T02:44:15;0.65;;;0.65;;
24729;SDS011;12832;52.392;13.066;2023-04-24T02:46:42;0.70;;;0.70;;
24729;SDS011;12832;52.392;13.066;2023-04-24T02:49:09;0.52;;;0.52;;
24729;SDS011;12832;52.392;13.066;2023-04-24T02:51:35;0.70;;;0.70;;
24729;SDS011;12832;52.392;13.066;2023-04-24T02:54:03;0.50;;;0.50;;
24729;SDS011;12832;52.392;13.066;2023-04-24T02:56:29;0.80;;;0.80;;
24729;SDS011;12832;52.392;13.066;2023-04-24T02:58:55;0.82;;;0.68;;
24729;SDS011;12832;52.392;13.066;2023-04-24T03:01:21;0.60;;;0.60;;
24729;SDS011;12832;52.392;13.066;2023-04-24T03:03:48;0.50;;;0.50;;
24729;SDS011;12832;52.392;13.066;2023-04-24T03:06:15;0.63;;;0.63;;
24729;SDS011;12832;52.392;13.066;2023-04-24T03:08:41;0.50;;;0.50;;
24729;SDS011;12832;52.392;13.066;2023-04-24T03:11:07;0.60;;;0.60;;
24729;SDS011;12832;52.392;13.066;2023-04-24T03:13:33;0.47;;;0.47;;
24729;SDS011;12832;52.392;13.066;2023-04-24T03:16:00;0.73;;;0.73;;
24729;SDS011;12832;52.392;13.066;2023-04-24T03:18:26;0.70;;;0.70;;
24729;SDS011;12832;52.392;13.066;2023-04-24T03:20:52;0.50;;;0.50;;
24729;SDS011;12832;52.392;13.066;2023-04-24T03:23:18;0.70;;;0.70;;
24729;SDS011;12832;52.392;13.066;2023-04-24T03:25:44;0.65;;;0.65;;
24729;SDS011;12832;52.392;13.066;2023-04-24T03:28:11;0.68;;;0.68;;
24729;SDS011;12832;52.392;13.066;2023-04-24T03:30:37;0.50;;;0.50;;
24729;SDS011;12832;52.392;13.066;2023-04-24T03:33:03;0.73;;;0.73;;
24729;SDS011;12832;52.392;13.066;2023-04-24T03:35:30;0.60;;;0.60;;
24729;SDS011;12832;52.392;13.066;2023-04-24T03:37:56;0.68;;;0.68;;
24729;SDS011;12832;52.392;13.066;2023-04-24T03:40:22;0.60;;;0.60;;
24729;SDS011;12832;52.392;13.066;2023-04-24T03:42:48;0.70;;;0.70;;
24729;SDS011;12832;52.392;13.066;2023-04-24T03:45:14;0.60;;;0.60;;
24729;SDS011;12832;52.392;13.066;2023-04-24T03:47:40;0.70;;;0.70;;
24729;SDS011;12832;52.392;13.066;2023-04-24T03:50:06;0.70;;;0.70;;
24729;SDS011;12832;52.392;13.066;2023-04-24T03:52:33;0.60;;;0.60;;
24729;SDS011;12832;52.392;13.066;2023-04-24T03:54:59;0.70;;;0.70;;
24729;SDS011;12832;52.392;13.066;2023-04-24T03:57:25;0.55;;;0.55;;
24729;SDS011;12832;52.392;13.066;2023-04-24T03:59:51;0.50;;;0.50;;
24729;SDS011;12832;52.392;13.066;2023-04-24T04:02:18;0.70;;;0.70;;
24729;SDS011;12832;52.392;13.066;2023-04-24T04:04:45;0.60;;;0.60;;
24729;SDS011;12832;52.392;13.066;2023-04-24T04:07:11;0.65;;;0.50;;
24729;SDS011;12832;52.392;13.066;2023-04-24T04:09:38;0.50;;;0.50;;
24729;SDS011;12832;52.392;13.066;2023-04-24T04:12:04;0.60;;;0.60;;
24729;SDS011;12832;52.392;13.066;2023-04-24T04:14:32;1.23;;;0.60;;
24729;SDS011;12832;52.392;13.066;2023-04-24T04:16:58;0.45;;;0.45;;
24729;SDS011;12832;52.392;13.066;2023-04-24T04:19:24;0.50;;;0.50;;
24729;SDS011;12832;52.392;13.066;2023-04-24T04:21:50;0.57;;;0.57;;
24729;SDS011;12832;52.392;13.066;2023-04-24T04:24:19;0.55;;;0.55;;
24729;SDS011;12832;52.392;13.066;2023-04-24T04:26:49;0.60;;;0.60;;
24729;SDS011;12832;52.392;13.066;2023-04-24T04:29:18;0.73;;;0.60;;
24729;SDS011;12832;52.392;13.066;2023-04-24T04:31:44;0.60;;;0.60;;
24729;SDS011;12832;52.392;13.066;2023-04-24T04:34:10;0.70;;;0.70;;
24729;SDS011;12832;52.392;13.066;2023-04-24T04:36:38;0.73;;;0.50;;
24729;SDS011;12832;52.392;13.066;2023-04-24T04:39:06;0.77;;;0.70;;
24729;SDS011;12832;52.392;13.066;2023-04-24T04:41:33;0.63;;;0.63;;
24729;SDS011;12832;52.392;13.066;2023-04-24T04:44:01;0.70;;;0.70;;
24729;SDS011;12832;52.392;13.066;2023-04-24T04:46:30;0.70;;;0.70;;
24729;SDS011;12832;52.392;13.066;2023-04-24T04:48:59;0.35;;;0.35;;
24729;SDS011;12832;52.392;13.066;2023-04-24T04:51:27;0.50;;;0.50;;
24729;SDS011;12832;52.392;13.066;2023-04-24T04:53:54;0.63;;;0.60;;
24729;SDS011;12832;52.392;13.066;2023-04-24T04:56:20;0.50;;;0.50;;
24729;SDS011;12832;52.392;13.066;2023-04-24T04:58:47;0.50;;;0.50;;
24729;SDS011;12832;52.392;13.066;2023-04-24T05:01:13;0.43;;;0.43;;
24729;SDS011;12832;52.392;13.066;2023-04-24T05:03:39;0.40;;;0.40;;
24729;SDS011;12832;52.392;13.066;2023-04-24T05:06:06;0.47;;;0.47;;
24729;SDS011;12832;52.392;13.066;2023-04-24T05:08:32;0.50;;;0.50;;
24729;SDS011;12832;52.392;13.066;2023-04-24T05:10:58;0.50;;;0.50;;
24729;SDS011;12832;52.392;13.066;2023-04-24T05:13:24;0.73;;;0.73;;
24729;SDS011;12832;52.392;13.066;2023-04-24T05:16:05;0.50;;;0.50;;
24729;SDS011;12832;52.392;13.066;2023-04-24T05:18:32;0.63;;;0.60;;
24729;SDS011;12832;52.392;13.066;2023-04-24T05:20:58;0.60;;;0.60;;
24729;SDS011;12832;52.392;13.066;2023-04-24T05:23:24;1.58;;;0.65;;
24729;SDS011;12832;52.392;13.066;2023-04-24T05:25:50;0.95;;;0.80;;
24729;SDS011;12832;52.392;13.066;2023-04-24T05:28:16;2.30;;;0.80;;
24729;SDS011;12832;52.392;13.066;2023-04-24T05:30:42;1.08;;;0.85;;
24729;SDS011;12832;52.392;13.066;2023-04-24T05:33:08;1.02;;;0.90;;
24729;SDS011;12832;52.392;13.066;2023-04-24T05:35:35;0.80;;;0.80;;
24729;SDS011;12832;52.392;13.066;2023-04-24T05:38:01;2.08;;;0.98;;
24729;SDS011;12832;52.392;13.066;2023-04-24T05:40:27;1.80;;;0.88;;
24729;SDS011;12832;52.392;13.066;2023-04-24T05:42:53;1.40;;;0.80;;
24729;SDS011;12832;52.392;13.066;2023-04-24T05:45:19;0.85;;;0.82;;
24729;SDS011;12832;52.392;13.066;2023-04-24T05:47:45;2.25;;;1.00;;
24729;SDS011;12832;52.392;13.066;2023-04-24T05:50:13;1.55;;;0.95;;
24729;SDS011;12832;52.392;13.066;2023-04-24T05:52:40;2.00;;;1.10;;
24729;SDS011;12832;52.392;13.066;2023-04-24T05:55:06;1.20;;;1.00;;
24729;SDS011;12832;52.392;13.066;2023-04-24T05:57:33;1.15;;;0.80;;
24729;SDS011;12832;52.392;13.066;2023-04-24T05:59:59;2.50;;;0.93;;
24729;SDS011;12832;52.392;13.066;2023-04-24T06:02:25;1.15;;;0.82;;
24729;SDS011;12832;52.392;13.066;2023-04-24T06:04:51;1.15;;;0.77;;
24729;SDS011;12832;52.392;13.066;2023-04-24T06:07:18;1.67;;;1.05;;
24729;SDS011;12832;52.392;13.066;2023-04-24T06:09:44;1.08;;;0.88;;
24729;SDS011;12832;52.392;13.066;2023-04-24T06:12:10;1.13;;;0.73;;
24729;SDS011;12832;52.392;13.066;2023-04-24T06:14:36;1.80;;;0.82;;
24729;SDS011;12832;52.392;13.066;2023-04-24T06:17:02;0.85;;;0.70;;
24729;SDS011;12832;52.392;13.066;2023-04-24T06:19:29;1.27;;;0.75;;
24729;SDS011;12832;52.392;13.066;2023-04-24T06:21:55;1.35;;;0.80;;
24729;SDS011;12832;52.392;13.066;2023-04-24T06:24:21;1.10;;;0.70;;
24729;SDS011;12832;52.392;13.066;2023-04-24T06:26:47;2.97;;;0.82;;
24729;SDS011;12832;52.392;13.066;2023-04-24T06:29:14;1.45;;;0.68;;
24729;SDS011;12832;52.392;13.066;2023-04-24T06:31:40;0.70;;;0.70;;
24729;SDS011;12832;52.392;13.066;2023-04-24T06:34:06;1.35;;;0.70;;
24729;SDS011;12832;52.392;13.066;2023-04-24T06:36:32;1.77;;;0.90;;
24729;SDS011;12832;52.392;13.066;2023-04-24T06:39:00;1.35;;;0.75;;
24729;SDS011;12832;52.392;13.066;2023-04-24T06:41:26;1.17;;;0.70;;
24729;SDS011;12832;52.392;13.066;2023-04-24T06:43:52;1.10;;;0.80;;
24729;SDS011;12832;52.392;13.066;2023-04-24T06:46:18;0.95;;;0.80;;
24729;SDS011;12832;52.392;13.066;2023-04-24T06:48:44;1.30;;;0.60;;
24729;SDS011;12832;52.392;13.066;2023-04-24T06:51:11;0.95;;;0.70;;
24729;SDS011;12832;52.392;13.066;2023-04-24T06:53:37;3.55;;;0.80;;
24729;SDS011;12832;52.392;13.066;2023-04-24T06:56:03;0.68;;;0.60;;
24729;SDS011;12832;52.392;13.066;2023-04-24T06:58:30;2.30;;;0.73;;
24729;SDS011;12832;52.392;13.066;2023-04-24T07:00:56;1.77;;;0.80;;
24729;SDS011;12832;52.392;13.066;2023-04-24T07:03:23;1.00;;;0.70;;
24729;SDS011;12832;52.392;13.066;2023-04-24T07:05:49;0.60;;;0.60;;
24729;SDS011;12832;52.392;13.066;2023-04-24T07:08:15;0.73;;;0.70;;
24729;SDS011;12832;52.392;13.066;2023-04-24T07:10:43;2.70;;;0.60;;
24729;SDS011;12832;52.392;13.066;2023-04-24T07:13:10;2.28;;;0.50;;
24729;SDS011;12832;52.392;13.066;2023-04-24T07:15:36;1.15;;;0.50;;
24729;SDS011;12832;52.392;13.066;2023-04-24T07:18:02;0.80;;;0.70;;
24729;SDS011;12832;52.392;13.066;2023-04-24T07:20:31;1.73;;;0.60;;
24729;SDS011;12832;52.392;13.066;2023-04-24T07:22:57;0.77;;;0.60;;
24729;SDS011;12832;52.392;13.066;2023-04-24T07:25:23;0.85;;;0.50;;
24729;SDS011;12832;52.392;13.066;2023-04-24T07:27:49;0.70;;;0.50;;
24729;SDS011;12832;52.392;13.066;2023-04-24T07:30:16;1.20;;;0.60;;
24729;SDS011;12832;52.392;13.066;2023-04-24T07:32:42;2.05;;;0.65;;
24729;SDS011;12832;52.392;13.066;2023-04-24T07:35:08;1.25;;;0.60;;
24729;SDS011;12832;52.392;13.066;2023-04-24T07:37:35;0.68;;;0.60;;
24729;SDS011;12832;52.392;13.066;2023-04-24T07:40:02;2.80;;;0.63;;
24729;SDS011;12832;52.392;13.066;2023-04-24T07:42:29;1.63;;;0.82;;
24729;SDS011;12832;52.392;13.066;2023-04-24T07:44:56;2.33;;;0.60;;
24729;SDS011;12832;52.392;13.066;2023-04-24T07:47:22;1.15;;;0.40;;
24729;SDS011;12832;52.392;13.066;2023-04-24T07:49:49;1.42;;;0.70;;
24729;SDS011;12832;52.392;13.066;2023-04-24T07:52:16;2.25;;;0.50;;
24729;SDS011;12832;52.392;13.066;2023-04-24T07:54:42;1.70;;;0.57;;
24729;SDS011;12832;52.392;13.066;2023-04-24T07:57:08;1.60;;;0.50;;
24729;SDS011;12832;52.392;13.066;2023-04-24T07:59:34;1.98;;;0.70;;
24729;SDS011;12832;52.392;13.066;2023-04-24T08:02:00;0.70;;;0.50;;
24729;SDS011;12832;52.392;13.066;2023-04-24T08:04:27;0.90;;;0.60;;
24729;SDS011;12832;52.392;13.066;2023-04-24T08:06:53;0.63;;;0.55;;
24729;SDS011;12832;52.392;13.066;2023-04-24T08:09:20;2.05;;;0.43;;
24729;SDS011;12832;52.392;13.066;2023-04-24T08:11:48;1.20;;;0.45;;
24729;SDS011;12832;52.392;13.066;2023-04-24T08:14:15;2.58;;;0.50;;
24729;SDS011;12832;52.392;13.066;2023-04-24T08:16:41;1.35;;;0.50;;
24729;SDS011;12832;52.392;13.066;2023-04-24T08:19:08;1.13;;;0.68;;
24729;SDS011;12832;52.392;13.066;2023-04-24T08:21:34;0.90;;;0.60;;
24729;SDS011;12832;52.392;13.066;2023-04-24T08:24:00;0.75;;;0.50;;
24729;SDS011;12832;52.392;13.066;2023-04-24T08:26:30;0.85;;;0.50;;
24729;SDS011;12832;52.392;13.066;2023-04-24T08:28:57;1.17;;;0.52;;
24729;SDS011;12832;52.392;13.066;2023-04-24T08:31:23;1.88;;;0.60;;
24729;SDS011;12832;52.392;13.066;2023-04-24T08:33:50;1.13;;;0.38;;
24729;SDS011;12832;52.392;13.066;2023-04-24T08:36:16;1.48;;;0.50;;
24729;SDS011;12832;52.392;13.066;2023-04-24T08:38:43;1.52;;;0.57;;
24729;SDS011;12832;52.392;13.066;2023-04-24T08:41:09;1.40;;;0.40;;
24729;SDS011;12832;52.392;13.066;2023-04-24T08:43:39;0.43;;;0.43;;
24729;SDS011;12832;52.392;13.066;2023-04-24T08:46:07;0.88;;;0.47;;
24729;SDS011;12832;52.392;13.066;2023-04-24T08:48:37;0.77;;;0.50;;
24729;SDS011;12832;52.392;13.066;2023-04-24T08:51:06;0.70;;;0.40;;
24729;SDS011;12832;52.392;13.066;2023-04-24T08:53:34;3.13;;;0.60;;
24729;SDS011;12832;52.392;13.066;2023-04-24T08:56:01;1.38;;;1.13;;
24729;SDS011;12832;52.392;13.066;2023-04-24T08:58:28;2.05;;;1.23;;
24729;SDS011;12832;52.392;13.066;2023-04-24T09:00:56;2.15;;;1.10;;
24729;SDS011;12832;52.392;13.066;2023-04-24T09:03:23;3.00;;;1.30;;
24729;SDS011;12832;52.392;13.066;2023-04-24T09:05:52;1.50;;;1.17;;
24729;SDS011;12832;52.392;13.066;2023-04-24T09:08:21;0.98;;;0.82;;
24729;SDS011;12832;52.392;13.066;2023-04-24T09:10:52;1.38;;;0.75;;
24729;SDS011;12832;52.392;13.066;2023-04-24T09:13:20;1.65;;;1.10;;
24729;SDS011;12832;52.392;13.066;2023-04-24T09:15:49;2.13;;;1.20;;
24729;SDS011;12832;52.392;13.066;2023-04-24T09:18:16;1.40;;;1.00;;
24729;SDS011;12832;52.392;13.066;2023-04-24T09:21:02;0.80;;;0.70;;
24729;SDS011;12832;52.392;13.066;2023-04-24T09:23:31;2.63;;;0.90;;
24729;SDS011;12832;52.392;13.066;2023-04-24T09:25:59;2.83;;;1.10;;
24729;SDS011;12832;52.392;13.066;2023-04-24T09:28:32;1.25;;;1.00;;
24729;SDS011;12832;52.392;13.066;2023-04-24T09:31:08;1.85;;;1.05;;
24729;SDS011;12832;52.392;13.066;2023-04-24T09:36:31;1.58;;;0.80;;
24729;SDS011;12832;52.392;13.066;2023-04-24T09:39:00;1.25;;;0.70;;
24729;SDS011;12832;52.392;13.066;2023-04-24T09:41:28;0.73;;;0.60;;
24729;SDS011;12832;52.392;13.066;2023-04-24T09:43:55;0.90;;;0.68;;
24729;SDS011;12832;52.392;13.066;2023-04-24T09:46:28;2.28;;;0.70;;
24729;SDS011;12832;52.392;13.066;2023-04-24T09:49:03;2.05;;;0.90;;
24729;SDS011;12832;52.392;13.066;2023-04-24T09:51:36;6.90;;;0.90;;
24729;SDS011;12832;52.392;13.066;2023-04-24T09:54:04;2.05;;;0.68;;
24729;SDS011;12832;52.392;13.066;2023-04-24T09:56:43;1.70;;;0.65;;
24729;SDS011;12832;52.392;13.066;2023-04-24T09:59:12;1.35;;;0.47;;
24729;SDS011;12832;52.392;13.066;2023-04-24T10:01:40;1.45;;;0.50;;
24729;SDS011;12832;52.392;13.066;2023-04-24T10:04:53;1.10;;;0.60;;
24729;SDS011;12832;52.392;13.066;2023-04-24T10:07:03;0.55;;;0.50;;
24729;SDS011;12832;52.392;13.066;2023-04-24T10:09:33;1.85;;;0.60;;
24729;SDS011;12832;52.392;13.066;2023-04-24T10:12:00;0.90;;;0.57;;
24729;SDS011;12832;52.392;13.066;2023-04-24T10:14:27;1.15;;;0.40;;
24729;SDS011;12832;52.392;13.066;2023-04-24T10:16:56;1.88;;;0.50;;
24729;SDS011;12832;52.392;13.066;2023-04-24T10:19:25;1.25;;;0.60;;
24729;SDS011;12832;52.392;13.066;2023-04-24T10:21:52;1.42;;;0.52;;
24729;SDS011;12832;52.392;13.066;2023-04-24T10:24:20;2.17;;;0.40;;
24729;SDS011;12832;52.392;13.066;2023-04-24T10:26:47;1.42;;;0.50;;
24729;SDS011;12832;52.392;13.066;2023-04-24T10:29:14;1.15;;;0.50;;
24729;SDS011;12832;52.392;13.066;2023-04-24T10:31:43;0.50;;;0.47;;
24729;SDS011;12832;52.392;13.066;2023-04-24T10:34:13;0.50;;;0.40;;
24729;SDS011;12832;52.392;13.066;2023-04-24T10:36:43;0.73;;;0.57;;
24729;SDS011;12832;52.392;13.066;2023-04-24T10:39:16;1.08;;;0.50;;
24729;SDS011;12832;52.392;13.066;2023-04-24T10:41:44;1.85;;;0.45;;
24729;SDS011;12832;52.392;13.066;2023-04-24T10:44:13;2.55;;;0.63;;
24729;SDS011;12832;52.392;13.066;2023-04-24T10:46:44;1.38;;;0.75;;
24729;SDS011;12832;52.392;13.066;2023-04-24T10:49:14;0.98;;;0.50;;
24729;SDS011;12832;52.392;13.066;2023-04-24T10:51:44;2.85;;;0.60;;
24729;SDS011;12832;52.392;13.066;2023-04-24T11:00:10;2.35;;;0.60;;
24729;SDS011;12832;52.392;13.066;2023-04-24T11:02:51;0.50;;;0.50;;
24729;SDS011;12832;52.392;13.066;2023-04-24T11:08:24;2.55;;;0.65;;
24729;SDS011;12832;52.392;13.066;2023-04-24T11:10:55;0.88;;;0.60;;
24729;SDS011;12832;52.392;13.066;2023-04-24T11:19:07;0.57;;;0.55;;
24729;SDS011;12832;52.392;13.066;2023-04-24T11:21:42;1.90;;;0.50;;
24729;SDS011;12832;52.392;13.066;2023-04-24T11:27:12;2.33;;;0.40;;
24729;SDS011;12832;52.392;13.066;2023-04-24T11:35:15;0.88;;;0.55;;
24729;SDS011;12832;52.392;13.066;2023-04-24T11:37:54;0.50;;;0.50;;
24729;SDS011;12832;52.392;13.066;2023-04-24T11:40:50;1.25;;;0.63;;
24729;SDS011;12832;52.392;13.066;2023-04-24T11:43:21;0.30;;;0.28;;
24729;SDS011;12832;52.392;13.066;2023-04-24T11:45:49;0.43;;;0.32;;
24729;SDS011;12832;52.392;13.066;2023-04-24T11:48:20;0.85;;;0.40;;
24729;SDS011;12832;52.392;13.066;2023-04-24T11:50:50;2.20;;;0.50;;
24729;SDS011;12832;52.392;13.066;2023-04-24T11:53:19;1.05;;;0.55;;
24729;SDS011;12832;52.392;13.066;2023-04-24T11:55:48;1.65;;;0.60;;
24729;SDS011;12832;52.392;13.066;2023-04-24T11:58:16;0.55;;;0.40;;
24729;SDS011;12832;52.392;13.066;2023-04-24T12:00:56;2.97;;;0.52;;
24729;SDS011;12832;52.392;13.066;2023-04-24T12:03:28;10.82;;;0.80;;
24729;SDS011;12832;52.392;13.066;2023-04-24T12:06:07;3.30;;;0.43;;
24729;SDS011;12832;52.392;13.066;2023-04-24T12:08:37;1.13;;;0.40;;
24729;SDS011;12832;52.392;13.066;2023-04-24T12:11:05;1.23;;;0.60;;
24729;SDS011;12832;52.392;13.066;2023-04-24T12:13:35;0.90;;;0.47;;
24729;SDS011;12832;52.392;13.066;2023-04-24T12:16:02;0.45;;;0.35;;
24729;SDS011;12832;52.392;13.066;2023-04-24T12:18:30;1.27;;;0.35;;
24729;SDS011;12832;52.392;13.066;2023-04-24T12:21:14;1.05;;;0.40;;
24729;SDS011;12832;52.392;13.066;2023-04-24T12:23:45;4.90;;;0.88;;
24729;SDS011;12832;52.392;13.066;2023-04-24T12:26:18;2.67;;;0.55;;
24729;SDS011;12832;52.392;13.066;2023-04-24T12:28:48;2.17;;;0.35;;
24729;SDS011;12832;52.392;13.066;2023-04-24T12:31:16;0.57;;;0.45;;
24729;SDS011;12832;52.392;13.066;2023-04-24T12:33:45;4.85;;;0.50;;
24729;SDS011;12832;52.392;13.066;2023-04-24T12:36:15;0.82;;;0.50;;
24729;SDS011;12832;52.392;13.066;2023-04-24T12:38:43;2.05;;;0.43;;
24729;SDS011;12832;52.392;13.066;2023-04-24T12:41:12;1.60;;;0.32;;
24729;SDS011;12832;52.392;13.066;2023-04-24T12:43:50;0.90;;;0.55;;
24729;SDS011;12832;52.392;13.066;2023-04-24T12:46:22;0.50;;;0.40;;
24729;SDS011;12832;52.392;13.066;2023-04-24T12:48:49;1.05;;;0.50;;
24729;SDS011;12832;52.392;13.066;2023-04-24T12:51:17;0.38;;;0.30;;
24729;SDS011;12832;52.392;13.066;2023-04-24T12:53:46;0.77;;;0.45;;
24729;SDS011;12832;52.392;13.066;2023-04-24T12:56:12;1.50;;;0.45;;
24729;SDS011;12832;52.392;13.066;2023-04-24T12:58:39;1.50;;;0.43;;
24729;SDS011;12832;52.392;13.066;2023-04-24T13:01:05;0.47;;;0.40;;
24729;SDS011;12832;52.392;13.066;2023-04-24T13:03:33;2.38;;;0.40;;
24729;SDS011;12832;52.392;13.066;2023-04-24T13:06:02;1.88;;;0.60;;
24729;SDS011;12832;52.392;13.066;2023-04-24T13:08:29;0.40;;;0.35;;
24729;SDS011;12832;52.392;13.066;2023-04-24T13:10:57;0.40;;;0.32;;
24729;SDS011;12832;52.392;13.066;2023-04-24T13:13:23;0.88;;;0.60;;
24729;SDS011;12832;52.392;13.066;2023-04-24T13:15:51;2.53;;;0.47;;
24729;SDS011;12832;52.392;13.066;2023-04-24T13:18:19;0.63;;;0.50;;
24729;SDS011;12832;52.392;13.066;2023-04-24T13:20:45;0.65;;;0.50;;
24729;SDS011;12832;52.392;13.066;2023-04-24T13:23:13;3.70;;;0.55;;
24729;SDS011;12832;52.392;13.066;2023-04-24T13:25:40;0.73;;;0.47;;
24729;SDS011;12832;52.392;13.066;2023-04-24T13:28:08;2.90;;;0.73;;
24729;SDS011;12832;52.392;13.066;2023-04-24T13:30:35;4.40;;;0.60;;
24729;SDS011;12832;52.392;13.066;2023-04-24T13:33:02;2.67;;;0.98;;
24729;SDS011;12832;52.392;13.066;2023-04-24T13:35:29;2.05;;;1.05;;
24729;SDS011;12832;52.392;13.066;2023-04-24T13:37:55;4.65;;;0.95;;
24729;SDS011;12832;52.392;13.066;2023-04-24T13:40:22;1.58;;;0.52;;
24729;SDS011;12832;52.392;13.066;2023-04-24T13:42:48;1.25;;;0.40;;
24729;SDS011;12832;52.392;13.066;2023-04-24T13:45:14;0.50;;;0.40;;
24729;SDS011;12832;52.392;13.066;2023-04-24T13:47:50;1.50;;;0.40;;
24729;SDS011;12832;52.392;13.066;2023-04-24T13:50:17;1.35;;;0.55;;
24729;SDS011;12832;52.392;13.066;2023-04-24T13:52:44;0.65;;;0.50;;
24729;SDS011;12832;52.392;13.066;2023-04-24T13:55:10;1.10;;;0.40;;
24729;SDS011;12832;52.392;13.066;2023-04-24T13:57:36;0.75;;;0.40;;
24729;SDS011;12832;52.392;13.066;2023-04-24T14:00:02;1.17;;;0.40;;
24729;SDS011;12832;52.392;13.066;2023-04-24T14:02:29;1.15;;;0.40;;
24729;SDS011;12832;52.392;13.066;2023-04-24T14:04:56;0.45;;;0.40;;
24729;SDS011;12832;52.392;13.066;2023-04-24T14:07:22;1.40;;;0.60;;
24729;SDS011;12832;52.392;13.066;2023-04-24T14:09:48;0.60;;;0.50;;
24729;SDS011;12832;52.392;13.066;2023-04-24T14:12:15;1.77;;;0.30;;
24729;SDS011;12832;52.392;13.066;2023-04-24T14:14:45;2.97;;;0.55;;
24729;SDS011;12832;52.392;13.066;2023-04-24T14:17:13;1.20;;;0.40;;
24729;SDS011;12832;52.392;13.066;2023-04-24T14:19:40;0.65;;;0.35;;
24729;SDS011;12832;52.392;13.066;2023-04-24T14:22:06;0.85;;;0.30;;
24729;SDS011;12832;52.392;13.066;2023-04-24T14:24:33;0.75;;;0.40;;
24729;SDS011;12832;52.392;13.066;2023-04-24T14:26:59;1.58;;;0.50;;
24729;SDS011;12832;52.392;13.066;2023-04-24T14:29:25;1.15;;;0.45;;
24729;SDS011;12832;52.392;13.066;2023-04-24T14:31:52;0.50;;;0.50;;
24729;SDS011;12832;52.392;13.066;2023-04-24T14:34:18;0.50;;;0.40;;
24729;SDS011;12832;52.392;13.066;2023-04-24T14:36:45;0.95;;;0.50;;
24729;SDS011;12832;52.392;13.066;2023-04-24T14:39:11;1.05;;;0.40;;
24729;SDS011;12832;52.392;13.066;2023-04-24T14:41:37;0.43;;;0.40;;
24729;SDS011;12832;52.392;13.066;2023-04-24T14:44:04;0.55;;;0.45;;
24729;SDS011;12832;52.392;13.066;2023-04-24T14:46:31;0.32;;;0.30;;
24729;SDS011;12832;52.392;13.066;2023-04-24T14:48:57;0.55;;;0.45;;
24729;SDS011;12832;52.392;13.066;2023-04-24T14:51:23;1.25;;;0.50;;
24729;SDS011;12832;52.392;13.066;2023-04-24T14:53:51;0.88;;;0.52;;
24729;SDS011;12832;52.392;13.066;2023-04-24T14:56:17;0.47;;;0.40;;
24729;SDS011;12832;52.392;13.066;2023-04-24T14:58:43;0.47;;;0.47;;
24729;SDS011;12832;52.392;13.066;2023-04-24T15:01:10;0.30;;;0.30;;